Time;durP1;ratioP1;P1;durP2;ratioP2;P2;SDS_P1;SDS_P2;PMS_P1;PMS_P2;Temp;Humidity;BMP_temperature;BMP_pressure;BME280_temperature;BME280_humidity;BME280_pressure;Samples;Min_cycle;Max_cycle;Signal;HPM_P1;HPM_P2
2024/03/20 00:02:19;;;;;;;10.15;6.18;;;10.10;99.90;;;;;;5047938;28;20044;-79
2024/03/20 00:04:45;;;;;;;14.13;7.03;;;10.10;99.90;;;;;;5048617;28;20039;-79
2024/03/20 00:07:11;;;;;;;10.48;7.07;;;10.10;99.90;;;;;;5057017;28;20106;-79
2024/03/20 00:09:40;;;;;;;9.73;7.00;;;10.00;99.90;;;;;;5046688;28;20068;-79
2024/03/20 00:12:06;;;;;;;10.18;7.05;;;10.00;99.90;;;;;;5060028;28;20049;-79
2024/03/20 00:14:33;;;;;;;11.95;7.60;;;10.10;99.90;;;;;;5047882;28;20047;-79
2024/03/20 00:17:01;;;;;;;12.45;6.32;;;10.10;99.90;;;;;;5061174;28;20056;-79
2024/03/20 00:19:28;;;;;;;9.60;6.50;;;10.10;99.90;;;;;;5048273;28;20468;-79
2024/03/20 00:21:53;;;;;;;9.13;6.80;;;10.10;99.90;;;;;;5041529;28;20068;-80
2024/03/20 00:24:19;;;;;;;9.23;6.18;;;10.20;99.90;;;;;;5048543;28;20041;-79
2024/03/20 00:26:46;;;;;;;9.93;6.72;;;10.20;99.90;;;;;;5062905;28;20056;-79
2024/03/20 00:29:13;;;;;;;13.60;8.00;;;10.10;99.90;;;;;;5044037;28;20045;-79
2024/03/20 00:31:39;;;;;;;12.10;8.25;;;10.20;99.90;;;;;;5047345;28;20116;-79
2024/03/20 00:34:05;;;;;;;9.48;7.60;;;10.20;99.90;;;;;;5061153;28;20131;-79
2024/03/20 00:36:31;;;;;;;11.63;7.65;;;10.20;99.90;;;;;;5045221;28;20408;-80
2024/03/20 00:38:57;;;;;;;12.02;8.13;;;10.20;99.90;;;;;;5048414;28;20033;-79
2024/03/20 00:41:22;;;;;;;11.52;7.45;;;10.20;99.90;;;;;;5043415;28;20048;-79
2024/03/20 00:43:48;;;;;;;12.43;8.32;;;10.20;99.90;;;;;;5065157;28;20111;-79
2024/03/20 00:46:14;;;;;;;12.13;7.80;;;10.20;99.90;;;;;;5046866;28;20106;-79
2024/03/20 00:48:40;;;;;;;14.18;8.50;;;10.20;99.90;;;;;;5061963;28;20072;-79
2024/03/20 00:51:06;;;;;;;11.07;7.63;;;10.20;99.90;;;;;;5047872;28;20492;-79
2024/03/20 00:53:31;;;;;;;13.30;8.20;;;10.20;99.90;;;;;;5048347;28;20036;-79
2024/03/20 00:55:57;;;;;;;13.30;7.70;;;10.20;99.90;;;;;;5062009;28;20947;-79
2024/03/20 00:58:23;;;;;;;11.77;7.40;;;10.20;99.90;;;;;;5062450;28;20040;-79
2024/03/20 01:00:49;;;;;;;10.68;7.88;;;10.10;99.90;;;;;;5057222;28;20090;-79
2024/03/20 01:03:14;;;;;;;12.02;8.45;;;10.10;99.90;;;;;;5060643;28;20186;-79
2024/03/20 01:05:41;;;;;;;12.35;8.68;;;10.10;99.90;;;;;;5046835;28;20048;-79
2024/03/20 01:08:07;;;;;;;11.30;7.72;;;10.10;99.90;;;;;;5061334;28;20072;-79
2024/03/20 01:10:33;;;;;;;13.15;8.13;;;10.10;99.90;;;;;;5043742;28;20043;-79
2024/03/20 01:12:59;;;;;;;13.63;8.25;;;10.10;99.90;;;;;;5076755;28;20049;-79
2024/03/20 01:15:25;;;;;;;9.63;7.72;;;10.10;99.90;;;;;;5078454;28;20540;-79
2024/03/20 01:17:51;;;;;;;12.50;8.23;;;10.10;99.90;;;;;;5079549;28;21792;-80
2024/03/20 01:20:17;;;;;;;11.98;8.23;;;10.10;99.90;;;;;;5059512;28;20558;-79
2024/03/20 01:22:42;;;;;;;13.07;9.02;;;10.10;99.90;;;;;;5059298;28;20052;-79
2024/03/20 01:25:09;;;;;;;16.67;9.02;;;10.10;99.90;;;;;;5062783;28;20556;-79
2024/03/20 01:27:35;;;;;;;13.63;8.20;;;10.10;99.90;;;;;;5046357;28;20044;-79
2024/03/20 01:30:00;;;;;;;11.05;8.18;;;10.10;99.90;;;;;;5065182;28;20059;-79
2024/03/20 01:32:26;;;;;;;13.48;8.82;;;10.10;99.90;;;;;;5057033;28;20029;-79
2024/03/20 01:34:52;;;;;;;13.35;8.35;;;10.10;99.90;;;;;;5060140;28;20052;-79
2024/03/20 01:37:18;;;;;;;11.80;8.05;;;10.10;99.90;;;;;;5057011;28;20106;-79
2024/03/20 01:39:44;;;;;;;16.45;8.82;;;10.00;99.90;;;;;;5043604;28;20037;-79
2024/03/20 01:42:10;;;;;;;12.23;9.23;;;10.10;99.90;;;;;;5057432;28;20044;-79
2024/03/20 01:44:36;;;;;;;12.75;8.15;;;10.00;99.90;;;;;;5046561;28;20104;-79
2024/03/20 01:47:05;;;;;;;10.73;7.72;;;10.00;99.90;;;;;;5043041;28;20051;-79
2024/03/20 01:49:31;;;;;;;13.77;9.02;;;10.00;99.90;;;;;;5042615;28;20456;-79
2024/03/20 01:52:01;;;;;;;12.00;8.93;;;10.00;99.90;;;;;;5059704;28;20040;-79
2024/03/20 01:54:30;;;;;;;11.25;7.90;;;10.10;99.90;;;;;;5061253;28;20125;-79
2024/03/20 01:56:56;;;;;;;12.98;8.90;;;10.00;99.90;;;;;;5059606;28;20118;-79
2024/03/20 01:59:22;;;;;;;13.88;8.93;;;10.10;99.90;;;;;;5047253;28;20040;-79
2024/03/20 02:01:47;;;;;;;13.43;8.82;;;10.10;99.90;;;;;;5044059;28;20041;-79
2024/03/20 02:04:13;;;;;;;14.52;9.45;;;10.10;99.90;;;;;;5055219;28;20463;-79
2024/03/20 02:06:39;;;;;;;14.38;8.27;;;10.00;99.90;;;;;;5041981;28;20036;-79
2024/03/20 02:09:05;;;;;;;12.15;8.90;;;10.00;99.90;;;;;;5048323;28;20040;-79
2024/03/20 02:11:31;;;;;;;13.68;9.00;;;10.10;99.90;;;;;;5061134;28;20048;-79
2024/03/20 02:13:57;;;;;;;10.55;8.52;;;10.10;99.90;;;;;;5045322;28;20048;-79
2024/03/20 02:16:25;;;;;;;11.70;8.70;;;10.00;99.90;;;;;;5060397;28;20124;-79
2024/03/20 02:18:51;;;;;;;11.02;8.32;;;10.00;99.90;;;;;;5048131;28;20045;-79
2024/03/20 02:21:19;;;;;;;10.77;8.45;;;10.00;99.90;;;;;;5043771;28;20102;-79
2024/03/20 02:23:45;;;;;;;10.48;8.73;;;10.10;99.90;;;;;;5047011;28;20451;-79
2024/03/20 02:26:11;;;;;;;10.95;9.13;;;10.00;99.90;;;;;;5075422;28;20059;-79
2024/03/20 02:28:41;;;;;;;12.15;10.07;;;9.90;99.90;;;;;;5064835;28;20128;-79
2024/03/20 02:31:08;;;;;;;14.93;10.17;;;9.80;99.90;;;;;;5044558;28;20607;-79
2024/03/20 02:33:34;;;;;;;13.80;10.25;;;9.80;99.90;;;;;;5041720;28;21014;-79
2024/03/20 02:36:01;;;;;;;11.57;9.68;;;9.80;99.90;;;;;;5057617;28;20460;-79
2024/03/20 02:38:33;;;;;;;14.70;10.63;;;9.80;99.90;;;;;;5038656;28;20500;-79
2024/03/20 02:41:00;;;;;;;15.63;12.32;;;9.80;99.90;;;;;;5062032;28;20488;-80
2024/03/20 02:43:27;;;;;;;14.77;12.30;;;9.80;99.90;;;;;;5043524;28;20125;-79
2024/03/20 02:45:53;;;;;;;14.00;10.95;;;9.80;99.90;;;;;;5060643;28;20405;-79
2024/03/20 02:48:19;;;;;;;15.27;10.27;;;9.70;99.90;;;;;;5040794;28;20044;-79
2024/03/20 02:50:46;;;;;;;14.45;11.40;;;9.80;99.90;;;;;;5037030;28;20125;-79
2024/03/20 02:53:11;;;;;;;15.30;11.88;;;9.80;99.90;;;;;;5059853;28;20044;-79
2024/03/20 02:55:43;;;;;;;16.10;10.80;;;9.80;99.90;;;;;;5064673;28;20036;-79
2024/03/20 02:58:09;;;;;;;16.60;11.00;;;9.80;99.90;;;;;;5047300;28;20036;-79
2024/03/20 03:00:36;;;;;;;16.30;11.80;;;9.80;99.90;;;;;;5040404;28;20142;-79
2024/03/20 03:03:02;;;;;;;15.93;10.93;;;9.80;99.90;;;;;;5056489;28;20044;-79
2024/03/20 03:05:29;;;;;;;15.15;11.93;;;9.80;99.90;;;;;;5080140;28;20048;-79
2024/03/20 03:07:55;;;;;;;14.70;10.90;;;9.80;99.90;;;;;;5059588;28;20155;-79
2024/03/20 03:10:22;;;;;;;13.18;10.68;;;9.80;99.90;;;;;;5045507;28;20135;-79
2024/03/20 03:12:49;;;;;;;12.93;10.70;;;9.80;99.90;;;;;;5057962;28;20151;-79
2024/03/20 03:15:18;;;;;;;16.17;12.40;;;9.80;99.90;;;;;;5047331;28;20048;-79
2024/03/20 03:17:46;;;;;;;17.23;11.07;;;9.80;99.90;;;;;;5045309;28;20044;-79
2024/03/20 03:20:15;;;;;;;16.33;11.48;;;9.80;99.90;;;;;;5057639;28;21034;-79
2024/03/20 03:22:42;;;;;;;18.15;12.65;;;9.80;99.90;;;;;;5056212;28;20037;-79
2024/03/20 03:25:09;;;;;;;14.25;11.43;;;9.80;99.90;;;;;;5045211;28;20056;-79
2024/03/20 03:27:35;;;;;;;12.88;11.05;;;9.80;99.90;;;;;;5043260;28;20577;-79
2024/03/20 03:30:02;;;;;;;12.75;10.30;;;9.70;99.90;;;;;;5049764;28;20082;-79
2024/03/20 03:32:28;;;;;;;17.85;11.40;;;9.70;99.90;;;;;;5045206;28;20083;-79
2024/03/20 03:34:54;;;;;;;13.82;11.23;;;9.70;99.90;;;;;;5046398;28;20037;-79
2024/03/20 03:37:20;;;;;;;16.33;10.95;;;9.70;99.90;;;;;;5059063;28;20067;-79
2024/03/20 03:39:46;;;;;;;12.35;10.07;;;9.70;99.90;;;;;;5045842;28;20029;-80
2024/03/20 03:42:14;;;;;;;17.00;10.52;;;9.60;99.90;;;;;;5052091;28;20051;-79
2024/03/20 03:44:41;;;;;;;13.48;10.18;;;9.70;99.90;;;;;;5063292;28;20110;-79
2024/03/20 03:47:10;;;;;;;12.75;10.73;;;9.60;99.90;;;;;;5047874;28;20416;-80
2024/03/20 03:49:36;;;;;;;13.43;10.07;;;9.50;99.90;;;;;;5060754;28;20053;-79
2024/03/20 03:52:02;;;;;;;19.45;11.57;;;9.60;99.90;;;;;;5054083;28;20049;-79
2024/03/20 03:54:27;;;;;;;14.10;11.05;;;9.50;99.90;;;;;;5060045;28;20492;-79
2024/03/20 03:56:53;;;;;;;16.27;12.15;;;9.50;99.90;;;;;;5054865;28;20044;-79
2024/03/20 03:59:19;;;;;;;13.68;10.73;;;9.50;99.90;;;;;;5060472;28;20036;-79
2024/03/20 04:01:47;;;;;;;13.95;11.52;;;9.50;99.90;;;;;;5045435;28;20047;-78
2024/03/20 04:04:13;;;;;;;16.77;11.95;;;9.50;99.90;;;;;;5047514;28;20102;-79
2024/03/20 04:06:41;;;;;;;20.55;11.38;;;9.50;99.90;;;;;;5047496;28;20036;-79
2024/03/20 04:09:10;;;;;;;13.02;10.48;;;9.40;99.90;;;;;;5046990;28;20074;-79
2024/03/20 04:11:37;;;;;;;12.80;11.38;;;9.40;99.90;;;;;;5064983;28;20131;-79
2024/03/20 04:14:03;;;;;;;15.60;12.07;;;9.30;99.90;;;;;;5078810;28;20053;-79
2024/03/20 04:16:29;;;;;;;15.13;12.52;;;9.30;99.90;;;;;;5078134;28;20048;-79
2024/03/20 04:18:55;;;;;;;18.73;13.18;;;9.30;99.90;;;;;;5049222;28;20086;-79
2024/03/20 04:21:23;;;;;;;13.55;12.02;;;9.20;99.90;;;;;;5047837;28;20048;-79
2024/03/20 04:23:49;;;;;;;14.70;12.50;;;9.30;99.90;;;;;;5046134;28;20051;-79
2024/03/20 04:26:15;;;;;;;15.00;12.68;;;9.20;99.90;;;;;;5046648;28;20051;-79
2024/03/20 04:28:41;;;;;;;16.02;12.80;;;9.30;99.90;;;;;;5050795;28;20044;-79
2024/03/20 04:31:11;;;;;;;16.10;13.35;;;9.20;99.90;;;;;;5060558;28;20041;-78
2024/03/20 04:33:41;;;;;;;17.85;12.98;;;9.20;99.90;;;;;;5065657;28;20101;-79
2024/03/20 04:36:07;;;;;;;15.88;12.88;;;9.20;99.90;;;;;;5058418;28;20151;-79
2024/03/20 04:38:34;;;;;;;15.57;13.00;;;9.20;99.90;;;;;;5043621;28;20029;-79
2024/03/20 04:41:00;;;;;;;18.45;13.52;;;9.20;99.90;;;;;;5044970;28;20040;-79
2024/03/20 04:43:26;;;;;;;16.52;12.65;;;9.20;99.90;;;;;;5065127;28;20492;-79
2024/03/20 04:45:51;;;;;;;15.45;13.00;;;9.20;99.90;;;;;;5047226;28;20454;-79
2024/03/20 04:48:17;;;;;;;14.00;11.60;;;9.20;99.90;;;;;;5065568;28;20122;-79
2024/03/20 04:50:43;;;;;;;17.23;14.10;;;9.30;99.90;;;;;;5044409;28;20047;-79
2024/03/20 04:53:09;;;;;;;17.02;14.43;;;9.20;99.90;;;;;;5047660;28;20045;-79
2024/03/20 04:55:34;;;;;;;17.10;14.35;;;9.20;99.90;;;;;;5076877;28;20136;-79
2024/03/20 04:58:00;;;;;;;17.95;14.25;;;9.20;99.90;;;;;;5045709;28;20792;-79
2024/03/20 05:00:26;;;;;;;21.38;15.48;;;9.30;99.90;;;;;;5059792;28;20044;-79
2024/03/20 05:02:52;;;;;;;20.80;15.43;;;9.30;99.90;;;;;;5061121;28;20037;-79
2024/03/20 05:05:17;;;;;;;18.65;14.88;;;9.30;99.90;;;;;;5063883;28;20041;-79
2024/03/20 05:07:43;;;;;;;20.48;14.93;;;9.30;99.90;;;;;;5052969;28;20040;-79
2024/03/20 05:10:09;;;;;;;16.52;14.73;;;9.30;99.90;;;;;;5047507;28;20064;-79
2024/03/20 05:12:35;;;;;;;16.75;14.73;;;9.30;99.90;;;;;;5056048;28;20517;-79
2024/03/20 05:15:02;;;;;;;17.85;15.30;;;9.30;99.90;;;;;;5051698;28;20121;-79
2024/03/20 05:17:28;;;;;;;17.05;14.65;;;9.30;99.90;;;;;;5034698;28;20075;-79
2024/03/20 05:19:54;;;;;;;19.08;14.05;;;9.40;99.90;;;;;;5038521;28;20508;-79
2024/03/20 05:22:22;;;;;;;19.88;14.35;;;9.30;99.90;;;;;;5062188;28;20044;-79
2024/03/20 05:24:52;;;;;;;19.48;14.65;;;9.30;99.90;;;;;;5064277;28;20045;-79
2024/03/20 05:27:18;;;;;;;20.13;16.33;;;9.30;99.90;;;;;;5037224;28;20049;-79
2024/03/20 05:29:44;;;;;;;16.65;14.82;;;9.30;99.90;;;;;;5052784;28;20712;-79
2024/03/20 05:32:13;;;;;;;21.00;16.08;;;9.30;99.90;;;;;;5061489;28;20044;-79
2024/03/20 05:34:39;;;;;;;16.38;14.68;;;9.30;99.90;;;;;;5055746;28;20124;-79
2024/03/20 05:37:05;;;;;;;21.30;16.63;;;9.30;99.90;;;;;;5058461;28;20471;-79
2024/03/20 05:39:31;;;;;;;20.85;16.20;;;9.30;99.90;;;;;;5054250;28;20040;-79
2024/03/20 05:41:56;;;;;;;18.60;14.57;;;9.30;99.90;;;;;;5044473;28;20147;-79
2024/03/20 05:44:22;;;;;;;18.80;14.93;;;9.30;99.90;;;;;;5064513;28;20135;-79
2024/03/20 05:46:51;;;;;;;17.08;15.18;;;9.20;99.90;;;;;;5032703;28;20488;-79
2024/03/20 05:49:20;;;;;;;18.00;15.07;;;9.20;99.90;;;;;;5039349;28;20076;-80
2024/03/20 05:51:47;;;;;;;21.33;16.70;;;9.20;99.90;;;;;;5051496;28;20051;-79
2024/03/20 05:54:13;;;;;;;21.50;15.30;;;9.20;99.90;;;;;;5052390;28;20052;-79
2024/03/20 05:56:39;;;;;;;18.88;15.15;;;9.20;99.90;;;;;;5049279;28;20519;-79
2024/03/20 05:59:05;;;;;;;18.35;14.23;;;9.20;99.90;;;;;;5055522;28;20504;-79
2024/03/20 06:01:31;;;;;;;17.25;14.85;;;9.20;99.90;;;;;;5056832;28;20041;-79
2024/03/20 06:03:57;;;;;;;18.48;15.52;;;9.10;99.90;;;;;;5054368;28;20614;-79
2024/03/20 06:06:23;;;;;;;18.20;15.32;;;9.10;99.90;;;;;;5035868;28;20056;-79
2024/03/20 06:08:49;;;;;;;18.02;15.35;;;9.10;99.90;;;;;;5046012;28;20501;-80
2024/03/20 06:11:14;;;;;;;18.52;14.77;;;9.10;99.90;;;;;;5048269;28;20048;-79
2024/03/20 06:13:40;;;;;;;22.38;17.08;;;9.20;99.90;;;;;;5077787;28;20048;-80
2024/03/20 06:16:06;;;;;;;21.38;17.52;;;9.20;99.90;;;;;;5047408;28;20127;-79
2024/03/20 06:18:32;;;;;;;18.92;15.95;;;9.20;99.90;;;;;;5035887;28;20136;-79
2024/03/20 06:20:58;;;;;;;17.98;16.08;;;9.30;99.90;;;;;;5055528;28;20527;-79
2024/03/20 06:23:24;;;;;;;21.70;16.50;;;9.30;99.90;;;;;;5050918;28;20037;-79
2024/03/20 06:25:49;;;;;;;17.65;15.75;;;9.40;99.90;;;;;;5044112;28;20060;-80
2024/03/20 06:28:15;;;;;;;19.65;15.80;;;9.40;99.90;;;;;;5049338;28;20560;-80
2024/03/20 06:30:41;;;;;;;20.30;15.52;;;9.40;99.90;;;;;;5046710;28;20151;-80
2024/03/20 06:33:06;;;;;;;18.48;14.32;;;9.50;99.90;;;;;;5032648;28;20037;-80
2024/03/20 06:35:32;;;;;;;19.25;14.00;;;9.50;99.90;;;;;;5057609;28;20055;-80
2024/03/20 06:38:00;;;;;;;17.98;15.40;;;9.50;99.90;;;;;;5065398;28;20037;-80
2024/03/20 06:40:32;;;;;;;16.73;13.98;;;9.60;99.90;;;;;;5050873;28;20044;-80
2024/03/20 06:42:59;;;;;;;18.92;15.75;;;9.60;99.90;;;;;;5049364;28;20094;-80
2024/03/20 06:45:34;;;;;;;17.25;14.07;;;9.60;99.90;;;;;;5037045;28;20049;-80
2024/03/20 06:48:01;;;;;;;16.30;14.10;;;9.60;99.90;;;;;;5046058;28;20049;-80
2024/03/20 06:50:29;;;;;;;19.27;15.40;;;9.70;99.90;;;;;;5046825;28;20041;-80
2024/03/20 06:52:57;;;;;;;20.90;16.10;;;9.70;99.90;;;;;;5069979;28;20043;-80
2024/03/20 06:55:25;;;;;;;20.70;15.95;;;9.80;99.90;;;;;;5048838;28;20505;-81
2024/03/20 06:57:50;;;;;;;17.50;14.93;;;9.80;99.90;;;;;;5057875;28;20531;-80
2024/03/20 07:00:19;;;;;;;15.63;13.75;;;9.90;99.90;;;;;;5054670;28;20037;-80
2024/03/20 07:02:46;;;;;;;18.00;15.15;;;9.90;99.90;;;;;;5058229;28;20166;-81
2024/03/20 07:05:16;;;;;;;19.58;14.63;;;10.00;99.90;;;;;;5040714;28;20045;-81
2024/03/20 07:07:43;;;;;;;19.17;16.00;;;10.00;99.90;;;;;;5063415;28;20075;-81
2024/03/20 07:10:09;;;;;;;19.33;15.32;;;10.10;99.90;;;;;;5063809;28;20492;-81
2024/03/20 07:12:36;;;;;;;18.58;14.43;;;10.10;99.90;;;;;;5054910;28;20113;-80
2024/03/20 07:15:09;;;;;;;20.35;14.63;;;10.20;99.90;;;;;;5063326;28;20045;-80
2024/03/20 07:17:35;;;;;;;16.00;14.20;;;10.20;99.90;;;;;;5064064;28;20045;-79
2024/03/20 07:20:05;;;;;;;19.45;13.77;;;10.30;99.90;;;;;;5039237;28;20045;-80
2024/03/20 07:22:31;;;;;;;19.23;13.32;;;10.30;99.90;;;;;;5055784;28;20045;-80
2024/03/20 07:24:57;;;;;;;18.80;14.00;;;10.40;99.90;;;;;;5042357;28;20040;-80
2024/03/20 07:27:23;;;;;;;19.48;13.23;;;10.50;99.90;;;;;;5053853;28;20047;-80
2024/03/20 07:29:49;;;;;;;16.50;13.07;;;10.50;99.90;;;;;;5056193;28;20170;-80
2024/03/20 07:32:15;;;;;;;17.90;12.90;;;10.50;99.90;;;;;;5038666;28;20041;-80
2024/03/20 07:34:41;;;;;;;15.27;11.45;;;10.60;99.90;;;;;;5049662;28;20056;-79
2024/03/20 07:37:06;;;;;;;13.95;10.50;;;10.60;99.90;;;;;;5049534;28;20040;-80
2024/03/20 07:39:33;;;;;;;15.00;11.00;;;10.60;99.90;;;;;;5038353;28;20060;-80
2024/03/20 07:42:02;;;;;;;13.80;10.93;;;10.70;99.90;;;;;;5054926;28;20068;-80
2024/03/20 07:44:31;;;;;;;13.53;10.67;;;10.80;99.90;;;;;;5047593;28;20052;-80
2024/03/20 07:46:58;;;;;;;17.92;11.50;;;10.80;99.90;;;;;;5052464;28;20359;-80
2024/03/20 07:49:24;;;;;;;12.93;10.30;;;10.80;99.90;;;;;;5049354;28;20060;-80
2024/03/20 07:51:55;;;;;;;17.27;10.50;;;10.90;99.90;;;;;;5035692;28;20041;-80
2024/03/20 07:54:24;;;;;;;13.20;9.30;;;11.00;99.90;;;;;;5061307;28;20463;-80
2024/03/20 07:56:58;;;;;;;12.25;9.85;;;11.10;99.90;;;;;;5043540;28;20033;-80
2024/03/20 07:59:25;;;;;;;15.70;9.40;;;11.10;99.90;;;;;;5052857;28;20047;-80
2024/03/20 08:01:52;;;;;;;16.88;9.77;;;11.10;99.90;;;;;;5038097;28;20515;-80
2024/03/20 08:04:18;;;;;;;16.30;9.30;;;11.20;99.90;;;;;;5040070;28;20131;-80
2024/03/20 08:06:44;;;;;;;15.57;9.15;;;11.30;99.90;;;;;;5059545;28;20123;-80
2024/03/20 08:09:11;;;;;;;14.25;8.88;;;11.40;99.90;;;;;;5043162;28;20041;-80
2024/03/20 08:11:40;;;;;;;15.43;8.90;;;11.50;99.90;;;;;;5038622;28;20719;-80
2024/03/20 08:14:09;;;;;;;13.00;7.90;;;11.50;99.90;;;;;;5067306;28;20078;-80
2024/03/20 08:16:44;;;;;;;16.42;8.60;;;11.60;99.90;;;;;;5049120;28;20317;-81
2024/03/20 08:19:10;;;;;;;14.55;7.70;;;11.70;99.90;;;;;;5053197;28;20104;-80
2024/03/20 08:21:36;;;;;;;12.70;8.27;;;11.90;99.90;;;;;;5058011;28;20504;-81
2024/03/20 08:24:04;;;;;;;14.88;8.90;;;12.00;99.90;;;;;;5059339;28;20579;-80
2024/03/20 08:26:30;;;;;;;14.43;8.05;;;12.10;99.90;;;;;;5054825;28;20040;-80
2024/03/20 08:28:56;;;;;;;12.68;7.80;;;12.10;99.90;;;;;;5048455;28;20516;-81
2024/03/20 08:31:22;;;;;;;12.07;6.80;;;12.20;99.90;;;;;;5059049;28;20564;-80
2024/03/20 08:33:48;;;;;;;12.60;7.25;;;12.30;99.90;;;;;;5060994;28;20062;-80
2024/03/20 08:36:14;;;;;;;15.85;7.95;;;12.30;99.90;;;;;;5051074;28;20044;-80
2024/03/20 08:38:40;;;;;;;13.27;7.90;;;12.40;99.90;;;;;;5039069;28;20059;-80
2024/03/20 08:41:06;;;;;;;9.40;6.82;;;12.50;99.90;;;;;;5048835;28;20040;-80
2024/03/20 08:43:33;;;;;;;14.07;7.90;;;12.70;99.90;;;;;;5050784;28;20074;-81
2024/03/20 08:46:00;;;;;;;14.18;7.43;;;12.80;99.90;;;;;;5043681;28;20044;-80
2024/03/20 08:48:28;;;;;;;12.43;8.18;;;12.90;99.90;;;;;;5056718;28;20091;-81
2024/03/20 08:50:54;;;;;;;12.75;8.27;;;13.00;99.90;;;;;;5048642;28;20041;-80
2024/03/20 08:53:20;;;;;;;13.55;8.07;;;13.10;99.90;;;;;;5058800;28;20382;-80
2024/03/20 08:55:47;;;;;;;15.80;8.45;;;13.10;99.90;;;;;;5045107;28;20127;-81
2024/03/20 08:58:14;;;;;;;14.00;8.27;;;13.10;99.90;;;;;;5034771;28;20049;-81
2024/03/20 09:00:40;;;;;;;13.38;8.18;;;13.10;99.90;;;;;;5042992;28;20048;-80
2024/03/20 09:03:06;;;;;;;12.40;7.60;;;13.20;99.90;;;;;;5036132;28;20904;-81
2024/03/20 09:05:33;;;;;;;11.63;7.80;;;13.20;99.90;;;;;;5052731;28;20443;-81
2024/03/20 09:07:58;;;;;;;12.80;8.13;;;13.20;99.90;;;;;;5039717;28;20053;-81
2024/03/20 09:10:24;;;;;;;11.93;7.18;;;13.40;99.90;;;;;;5053589;28;20048;-80
2024/03/20 09:12:50;;;;;;;13.20;8.43;;;13.40;99.90;;;;;;5058076;28;20040;-80
2024/03/20 09:15:16;;;;;;;13.23;8.48;;;13.50;99.90;;;;;;5044401;28;20056;-81
2024/03/20 09:17:42;;;;;;;11.30;8.68;;;13.60;99.90;;;;;;5049627;28;20115;-81
2024/03/20 09:20:19;;;;;;;13.70;8.05;;;13.60;99.90;;;;;;5056818;28;20075;-81
2024/03/20 09:22:52;;;;;;;14.88;8.73;;;13.70;99.90;;;;;;5048683;28;20136;-81
2024/03/20 09:25:21;;;;;;;15.52;8.77;;;13.70;99.90;;;;;;5045064;28;20067;-81
2024/03/20 09:27:47;;;;;;;13.32;8.80;;;13.80;99.90;;;;;;5040838;28;20048;-81
2024/03/20 09:30:15;;;;;;;15.90;9.23;;;13.80;99.90;;;;;;5042036;28;20056;-81
2024/03/20 09:32:42;;;;;;;13.85;9.32;;;13.90;99.90;;;;;;5042787;28;20087;-81
2024/03/20 09:35:10;;;;;;;16.38;9.13;;;14.00;99.90;;;;;;5046644;28;20044;-83
2024/03/20 09:37:36;;;;;;;13.00;8.98;;;14.10;99.90;;;;;;5066623;28;20824;-81
2024/03/20 09:40:08;;;;;;;17.67;9.38;;;14.20;99.90;;;;;;5036792;28;20052;-81
2024/03/20 09:42:35;;;;;;;16.10;9.75;;;14.20;99.90;;;;;;5046868;28;20447;-81
2024/03/20 09:45:02;;;;;;;15.30;10.02;;;14.30;99.90;;;;;;5057867;28;20057;-82
2024/03/20 09:47:28;;;;;;;15.60;10.32;;;14.40;99.90;;;;;;5049785;28;20060;-81
2024/03/20 09:49:57;;;;;;;14.68;9.88;;;14.40;99.90;;;;;;5051044;28;20551;-81
2024/03/20 09:52:24;;;;;;;16.30;9.73;;;14.50;99.90;;;;;;5045046;28;20040;-82
2024/03/20 09:54:53;;;;;;;18.85;10.40;;;14.60;99.90;;;;;;5063478;28;20052;-82
2024/03/20 09:57:22;;;;;;;14.77;10.70;;;14.60;99.90;;;;;;5057113;28;20430;-80
2024/03/20 09:59:52;;;;;;;12.43;9.90;;;14.70;99.90;;;;;;5047070;28;20040;-82
2024/03/20 10:02:22;;;;;;;15.65;9.15;;;14.80;99.90;;;;;;5058695;28;20556;-83
2024/03/20 10:04:48;;;;;;;15.35;9.93;;;14.80;99.90;;;;;;5058561;28;20571;-82
2024/03/20 10:07:14;;;;;;;13.63;9.10;;;14.80;99.90;;;;;;5041406;28;20088;-82
2024/03/20 10:09:46;;;;;;;14.35;9.77;;;14.80;99.90;;;;;;5063559;28;20099;-82
2024/03/20 10:12:16;;;;;;;14.50;8.38;;;14.80;99.90;;;;;;5050968;28;20575;-82
2024/03/20 10:14:42;;;;;;;14.15;8.25;;;14.80;99.90;;;;;;5055485;28;20052;-82
2024/03/20 10:17:14;;;;;;;15.05;8.05;;;14.90;99.90;;;;;;5049202;28;20093;-82
2024/03/20 10:19:49;;;;;;;13.75;8.77;;;14.80;99.90;;;;;;5042143;28;20128;-82
2024/03/20 10:22:15;;;;;;;12.82;8.50;;;14.80;99.90;;;;;;5052927;28;20049;-81
2024/03/20 10:24:47;;;;;;;15.50;8.38;;;14.80;99.90;;;;;;5055298;28;20488;-82
2024/03/20 10:27:15;;;;;;;14.65;9.02;;;14.80;99.90;;;;;;5050487;28;20053;-81
2024/03/20 10:29:42;;;;;;;14.60;8.65;;;14.80;99.90;;;;;;5042003;28;20048;-82
2024/03/20 10:32:10;;;;;;;14.45;9.45;;;14.80;99.90;;;;;;5038554;28;20063;-82
2024/03/20 10:34:46;;;;;;;13.13;9.18;;;14.80;99.90;;;;;;5052941;28;20779;-82
2024/03/20 10:37:12;;;;;;;16.45;9.55;;;14.80;99.90;;;;;;5032399;28;20489;-81
2024/03/20 10:39:39;;;;;;;16.45;10.23;;;14.80;99.90;;;;;;5062028;28;20123;-81
2024/03/20 10:42:05;;;;;;;17.20;9.82;;;14.80;99.90;;;;;;5038140;28;20112;-81
2024/03/20 10:44:33;;;;;;;12.55;9.52;;;14.80;99.90;;;;;;5061767;28;21338;-81
2024/03/20 10:46:59;;;;;;;14.65;9.88;;;14.80;99.90;;;;;;5047042;28;20051;-81
2024/03/20 10:49:25;;;;;;;15.18;10.20;;;14.90;99.90;;;;;;5035095;28;20500;-82
2024/03/20 10:51:52;;;;;;;15.70;9.68;;;14.90;99.90;;;;;;5059839;28;20644;-81
2024/03/20 10:54:19;;;;;;;14.82;10.20;;;15.00;99.90;;;;;;5053492;28;20055;-81
2024/03/20 10:56:50;;;;;;;14.02;9.93;;;15.10;99.90;;;;;;5061325;28;20083;-81
2024/03/20 10:59:20;;;;;;;15.00;9.63;;;15.20;99.90;;;;;;5060056;28;20076;-81
2024/03/20 11:01:57;;;;;;;18.13;11.05;;;15.20;99.90;;;;;;5046075;28;20791;-82
2024/03/20 11:04:41;;;;;;;13.90;10.20;;;15.30;99.90;;;;;;5049789;28;20131;-82
2024/03/20 11:07:23;;;;;;;17.10;9.57;;;15.40;99.90;;;;;;5062006;28;20508;-81
2024/03/20 11:09:50;;;;;;;15.52;10.15;;;15.50;99.90;;;;;;5048527;28;20056;-82
2024/03/20 11:12:33;;;;;;;15.52;9.88;;;15.50;99.90;;;;;;5057063;28;20443;-82
2024/03/20 11:15:06;;;;;;;15.30;10.77;;;15.50;99.90;;;;;;5058341;28;20155;-82
2024/03/20 11:17:36;;;;;;;16.55;9.93;;;15.50;99.90;;;;;;5063004;28;20049;-82
2024/03/20 11:20:09;;;;;;;16.98;11.27;;;15.60;99.90;;;;;;5060950;28;20047;-81
2024/03/20 11:22:37;;;;;;;16.98;10.05;;;15.60;99.90;;;;;;5061467;28;20056;-82
2024/03/20 11:25:04;;;;;;;16.58;10.88;;;15.70;99.90;;;;;;5057380;28;20052;-82
2024/03/20 11:27:32;;;;;;;14.88;10.70;;;15.70;99.90;;;;;;5041381;28;20194;-81
2024/03/20 11:29:58;;;;;;;17.42;11.95;;;15.70;99.90;;;;;;5048108;28;20052;-81
2024/03/20 11:32:24;;;;;;;21.20;12.98;;;15.70;99.90;;;;;;5053617;28;20386;-82
2024/03/20 11:34:50;;;;;;;16.42;11.80;;;15.70;99.90;;;;;;5059284;28;20056;-82
2024/03/20 11:37:18;;;;;;;19.25;13.27;;;15.70;99.90;;;;;;5039594;28;20523;-82
2024/03/20 11:39:45;;;;;;;18.63;12.75;;;15.70;99.90;;;;;;5046200;28;20044;-82
2024/03/20 11:42:12;;;;;;;19.85;12.45;;;15.80;99.90;;;;;;5051590;28;20052;-83
2024/03/20 11:44:41;;;;;;;18.58;11.80;;;15.80;99.90;;;;;;5041713;28;20493;-81
2024/03/20 11:47:11;;;;;;;15.23;11.48;;;15.90;99.90;;;;;;5040870;28;20033;-81
2024/03/20 11:49:47;;;;;;;17.20;11.30;;;16.00;99.90;;;;;;5040930;28;20056;-84
2024/03/20 11:52:17;;;;;;;16.05;11.07;;;16.00;99.90;;;;;;5059563;28;20037;-83
2024/03/20 11:54:47;;;;;;;16.27;11.85;;;16.00;99.90;;;;;;5048178;28;20483;-82
2024/03/20 11:57:15;;;;;;;17.67;12.43;;;16.10;99.90;;;;;;5042837;28;20055;-83
2024/03/20 11:59:53;;;;;;;20.02;12.85;;;16.00;99.90;;;;;;5077026;28;20373;-83
2024/03/20 12:02:22;;;;;;;16.35;11.88;;;16.00;99.90;;;;;;5044249;28;20036;-82
2024/03/20 12:04:48;;;;;;;21.33;14.93;;;16.10;99.90;;;;;;5051256;28;20492;-83
2024/03/20 12:07:26;;;;;;;17.98;13.93;;;16.20;99.90;;;;;;5063787;28;20052;-83
2024/03/20 12:10:22;;;;;;;18.45;12.20;;;16.20;99.90;;;;;;5059018;28;20040;-83
2024/03/20 12:12:47;;;;;;;21.23;13.77;;;16.30;99.90;;;;;;5063856;28;20036;-84
2024/03/20 12:15:13;;;;;;;19.23;13.80;;;16.40;99.90;;;;;;5048888;28;20593;-82
2024/03/20 12:17:39;;;;;;;16.55;13.77;;;16.50;99.90;;;;;;5050139;28;20583;-83
2024/03/20 12:20:05;;;;;;;20.70;14.25;;;16.50;99.90;;;;;;5042828;28;20041;-84
2024/03/20 12:22:31;;;;;;;20.58;15.40;;;16.60;99.90;;;;;;5063415;28;20066;-83
2024/03/20 12:24:57;;;;;;;17.10;13.60;;;16.70;99.90;;;;;;5067451;28;20660;-83
2024/03/20 12:27:25;;;;;;;18.15;12.85;;;16.80;99.90;;;;;;5039485;28;20399;-83
2024/03/20 12:29:51;;;;;;;19.70;14.05;;;16.90;99.90;;;;;;5044595;28;20109;-83
2024/03/20 12:32:17;;;;;;;17.33;12.32;;;16.90;99.90;;;;;;5048999;28;20076;-83
2024/03/20 12:34:43;;;;;;;16.77;13.75;;;17.00;99.90;;;;;;5066016;28;20044;-83
2024/03/20 12:37:09;;;;;;;15.05;12.77;;;17.10;99.90;;;;;;5048499;28;20032;-82